createdAt,value
2023-01-31T00:00:36.578Z,88.94
2023-01-31T00:03:04.640Z,88.00
2023-01-31T00:05:32.752Z,88.33
2023-01-31T00:08:01.606Z,88.35
2023-01-31T00:10:29.782Z,87.17
2023-01-31T00:12:58.396Z,87.04
2023-01-31T00:15:27.866Z,87.37
2023-01-31T00:17:56.539Z,85.55
2023-01-31T00:20:24.642Z,86.13
2023-01-31T00:22:53.641Z,84.70
2023-01-31T00:25:22.021Z,84.82
2023-01-31T00:27:50.246Z,83.04
2023-01-31T00:30:18.894Z,82.75
2023-01-31T00:32:48.455Z,81.32
2023-01-31T00:35:16.615Z,80.93
2023-01-31T00:37:45.937Z,79.74
2023-01-31T00:40:15.440Z,79.14
2023-01-31T00:42:43.857Z,78.65
2023-01-31T00:45:13.605Z,78.77
2023-01-31T00:47:41.749Z,79.19
2023-01-31T00:50:16.052Z,79.96
2023-01-31T00:52:44.223Z,80.08
2023-01-31T00:55:12.350Z,80.21
2023-01-31T00:57:40.481Z,81.12
2023-01-31T01:00:10.550Z,81.62
2023-01-31T01:02:38.681Z,82.45
2023-01-31T01:05:07.647Z,84.20
2023-01-31T01:07:37.572Z,85.83
2023-01-31T01:10:06.789Z,87.67
2023-01-31T01:12:35.385Z,87.81
2023-01-31T01:15:03.521Z,87.91
2023-01-31T01:17:31.653Z,87.98
2023-01-31T01:20:03.565Z,88.43
2023-01-31T01:22:32.360Z,89.37
2023-01-31T01:25:01.933Z,88.58
2023-01-31T01:27:30.349Z,88.27
2023-01-31T01:29:59.094Z,87.87
2023-01-31T01:32:27.228Z,87.20
2023-01-31T01:34:55.379Z,87.97
2023-01-31T01:37:23.512Z,89.08
2023-01-31T01:39:51.981Z,88.46
2023-01-31T01:42:23.699Z,89.30
2023-01-31T01:44:54.174Z,89.56
2023-01-31T01:47:38.260Z,88.24
2023-01-31T01:50:14.399Z,88.58
2023-01-31T01:52:47.280Z,87.38
2023-01-31T01:55:22.005Z,85.59
2023-01-31T01:57:57.222Z,85.92
2023-01-31T02:00:30.004Z,85.36
2023-01-31T02:03:01.109Z,86.79
2023-01-31T02:05:33.735Z,86.82
2023-01-31T02:08:03.733Z,86.19
2023-01-31T02:10:36.061Z,88.32
2023-01-31T02:13:08.028Z,87.87
2023-01-31T02:15:36.934Z,85.43
2023-01-31T02:18:05.901Z,86.94
2023-01-31T02:21:14.700Z,87.79
2023-01-31T02:24:07.707Z,87.43
2023-01-31T02:27:07.531Z,87.53
2023-01-31T02:30:26.493Z,87.50
2023-01-31T02:33:04.398Z,87.30
2023-01-31T02:35:46.650Z,87.52
2023-01-31T02:38:26.573Z,88.33
2023-01-31T02:41:02.853Z,88.72
2023-01-31T02:44:05.285Z,89.39
2023-01-31T02:46:42.243Z,89.96
2023-01-31T02:49:34.700Z,89.97
2023-01-31T02:52:17.826Z,89.02
2023-01-31T02:55:15.249Z,90.72
2023-01-31T02:57:46.274Z,91.41
2023-01-31T03:00:15.504Z,91.77
2023-01-31T03:02:43.585Z,92.14
2023-01-31T03:05:17.032Z,93.05
2023-01-31T03:07:49.167Z,92.80
2023-01-31T03:10:35.382Z,92.86
2023-01-31T03:13:24.450Z,92.55
2023-01-31T03:16:21.320Z,91.97
2023-01-31T03:18:58.856Z,91.37
2023-01-31T03:21:33.841Z,90.44
2023-01-31T03:24:03.653Z,90.93
2023-01-31T03:26:32.080Z,89.97
2023-01-31T03:29:04.769Z,89.33
2023-01-31T03:31:40.145Z,89.01
2023-01-31T03:34:11.625Z,89.39
2023-01-31T03:36:47.734Z,90.49
2023-01-31T03:39:40.280Z,88.32
2023-01-31T03:42:16.162Z,88.57
2023-01-31T03:44:53.443Z,89.23
2023-01-31T03:47:27.319Z,89.44
2023-01-31T03:49:57.726Z,89.33
2023-01-31T03:52:36.069Z,90.69
2023-01-31T03:55:09.143Z,90.61
2023-01-31T03:57:42.541Z,88.64
2023-01-31T04:00:16.868Z,89.29
2023-01-31T04:02:55.316Z,90.37
2023-01-31T04:05:30.634Z,91.52
2023-01-31T04:08:00.842Z,91.60
2023-01-31T04:10:31.515Z,92.83
2023-01-31T04:12:59.756Z,91.21
2023-01-31T04:15:27.995Z,91.87
2023-01-31T04:17:56.133Z,90.09
2023-01-31T04:20:24.296Z,90.82
2023-01-31T04:22:52.392Z,92.10
2023-01-31T04:25:22.476Z,92.70
2023-01-31T04:27:51.665Z,94.37
2023-01-31T04:30:19.989Z,95.30
2023-01-31T04:32:48.135Z,96.15
2023-01-31T04:35:16.326Z,97.53
2023-01-31T04:37:44.447Z,97.10
2023-01-31T04:40:13.923Z,96.75
2023-01-31T04:42:43.491Z,97.00
2023-01-31T04:45:12.704Z,98.32
2023-01-31T04:47:40.994Z,99.62
2023-01-31T04:50:10.100Z,99.63
2023-01-31T04:52:38.234Z,100.00
2023-01-31T04:55:07.194Z,99.61
2023-01-31T04:57:35.318Z,100.00
2023-01-31T05:00:05.481Z,100.00
2023-01-31T05:02:33.816Z,100.00
2023-01-31T05:05:02.941Z,100.00
2023-01-31T05:07:31.525Z,100.00
2023-01-31T05:09:59.698Z,100.00
2023-01-31T05:12:28.567Z,100.00
2023-01-31T05:14:56.738Z,100.00
2023-01-31T05:17:29.768Z,100.00
2023-01-31T05:19:57.990Z,100.00
2023-01-31T05:22:26.506Z,100.00
2023-01-31T05:24:56.197Z,100.00
2023-01-31T05:27:26.343Z,100.00
2023-01-31T05:29:55.059Z,100.00
2023-01-31T05:32:23.304Z,100.00
2023-01-31T05:34:52.820Z,100.00
2023-01-31T05:37:20.979Z,100.00
2023-01-31T05:39:49.144Z,100.00
2023-01-31T05:42:17.287Z,100.00
2023-01-31T05:44:45.343Z,100.00
2023-01-31T05:47:13.403Z,100.00
2023-01-31T05:49:41.652Z,100.00
2023-01-31T05:52:11.182Z,100.00
2023-01-31T05:54:39.321Z,100.00
2023-01-31T05:57:07.688Z,100.00
2023-01-31T05:59:35.798Z,100.00
2023-01-31T06:02:04.004Z,100.00
2023-01-31T06:04:32.230Z,100.00
2023-01-31T06:07:00.447Z,100.00
2023-01-31T06:09:30.075Z,100.00
2023-01-31T06:11:58.612Z,100.00
2023-01-31T06:14:26.961Z,100.00
2023-01-31T06:16:55.075Z,100.00
2023-01-31T06:19:25.452Z,100.00
2023-01-31T06:21:53.648Z,100.00
2023-01-31T06:24:21.837Z,100.00
2023-01-31T06:26:51.366Z,100.00
2023-01-31T06:29:19.480Z,100.00
2023-01-31T06:31:47.592Z,100.00
2023-01-31T06:34:15.965Z,100.00
2023-01-31T06:36:44.082Z,100.00
2023-01-31T06:39:12.914Z,100.00
2023-01-31T06:41:41.584Z,100.00
2023-01-31T06:44:11.104Z,100.00
2023-01-31T06:46:39.593Z,100.00
2023-01-31T06:49:07.732Z,100.00
2023-01-31T06:51:35.902Z,100.00
2023-01-31T06:54:04.076Z,100.00
2023-01-31T06:56:32.665Z,100.00
2023-01-31T06:59:00.930Z,100.00
2023-01-31T07:01:30.509Z,100.00
2023-01-31T07:03:58.763Z,100.00
2023-01-31T07:06:26.980Z,100.00
2023-01-31T07:08:55.076Z,100.00
2023-01-31T07:11:23.173Z,100.00
2023-01-31T07:13:51.303Z,100.00
2023-01-31T07:16:19.906Z,100.00
2023-01-31T07:18:49.484Z,100.00
2023-01-31T07:21:17.610Z,100.00
2023-01-31T07:23:46.441Z,100.00
2023-01-31T07:26:14.750Z,100.00
2023-01-31T07:28:42.893Z,98.78
2023-01-31T07:31:14.065Z,96.11
2023-01-31T07:33:42.659Z,94.32
2023-01-31T07:36:15.226Z,91.37
2023-01-31T07:38:43.907Z,89.67
2023-01-31T07:41:12.737Z,88.67
2023-01-31T07:43:40.906Z,86.52
2023-01-31T07:46:11.135Z,84.58
2023-01-31T07:48:39.870Z,83.56
2023-01-31T07:51:08.197Z,80.56
2023-01-31T07:53:42.268Z,78.03
2023-01-31T07:56:12.654Z,78.14
2023-01-31T07:58:42.048Z,74.77
2023-01-31T08:01:33.027Z,74.70
2023-01-31T08:04:18.195Z,73.86
2023-01-31T08:06:48.400Z,73.35
2023-01-31T08:09:17.918Z,72.69
2023-01-31T08:11:46.213Z,66.14
2023-01-31T08:14:14.392Z,60.20
2023-01-31T08:16:42.602Z,59.39
2023-01-31T08:19:10.820Z,60.32
2023-01-31T08:21:38.952Z,64.37
2023-01-31T08:24:07.844Z,69.38
2023-01-31T08:26:37.440Z,67.86
2023-01-31T08:29:05.677Z,64.78
2023-01-31T08:31:33.989Z,62.63
2023-01-31T08:34:03.282Z,62.40
2023-01-31T08:36:32.940Z,60.47
2023-01-31T08:39:01.868Z,61.89
2023-01-31T08:41:31.436Z,62.62
2023-01-31T08:44:02.868Z,61.98
2023-01-31T08:46:34.741Z,57.19
2023-01-31T08:49:04.381Z,56.88
2023-01-31T08:51:32.606Z,56.83
2023-01-31T08:54:00.729Z,56.29
2023-01-31T08:56:28.971Z,56.82
2023-01-31T08:59:00.169Z,58.25
2023-01-31T09:01:29.146Z,58.39
2023-01-31T09:03:58.293Z,54.94
2023-01-31T09:06:28.138Z,54.77
2023-01-31T09:08:57.837Z,54.63
2023-01-31T09:11:28.947Z,52.26
2023-01-31T09:13:57.179Z,48.88
2023-01-31T09:16:26.731Z,51.06
2023-01-31T09:18:56.421Z,50.64
2023-01-31T09:21:25.550Z,48.82
2023-01-31T09:23:57.624Z,49.09
2023-01-31T09:26:26.337Z,48.06
2023-01-31T09:28:54.602Z,47.56
2023-01-31T09:31:22.916Z,44.94
2023-01-31T09:33:52.524Z,41.69
2023-01-31T09:36:24.140Z,41.07
2023-01-31T09:38:57.039Z,39.46
2023-01-31T09:41:32.041Z,39.85
2023-01-31T09:44:04.054Z,40.64
2023-01-31T09:46:37.739Z,37.83
2023-01-31T09:49:12.001Z,35.14
2023-01-31T09:51:41.399Z,35.14
2023-01-31T09:54:21.974Z,35.66
2023-01-31T09:57:02.169Z,37.01
2023-01-31T09:59:37.171Z,38.26
2023-01-31T10:02:38.875Z,37.21
2023-01-31T10:05:25.019Z,39.20
2023-01-31T10:08:05.970Z,36.70
2023-01-31T10:10:39.559Z,36.76
2023-01-31T10:13:18.404Z,36.55
2023-01-31T10:15:50.881Z,37.05
2023-01-31T10:18:24.448Z,34.12
2023-01-31T10:20:58.095Z,32.09
2023-01-31T10:23:31.483Z,32.11
2023-01-31T10:26:02.034Z,34.36
2023-01-31T10:28:37.273Z,35.00
2023-01-31T10:31:12.972Z,36.52
2023-01-31T10:33:50.672Z,37.27
2023-01-31T10:36:28.012Z,33.06
2023-01-31T10:39:03.975Z,33.52
2023-01-31T10:41:41.673Z,33.69
2023-01-31T10:44:19.104Z,32.75
2023-01-31T10:46:48.842Z,33.03
2023-01-31T10:49:17.533Z,32.67
2023-01-31T10:52:04.707Z,32.22
2023-01-31T10:54:43.892Z,32.28
2023-01-31T10:57:12.171Z,34.36
2023-01-31T10:59:44.197Z,32.71
2023-01-31T11:02:20.273Z,32.07
2023-01-31T11:04:48.417Z,32.03
2023-01-31T11:07:18.118Z,32.94
2023-01-31T11:09:51.632Z,31.16
2023-01-31T11:12:19.911Z,31.23
2023-01-31T11:15:06.836Z,30.68
2023-01-31T11:17:38.746Z,31.00
2023-01-31T11:20:07.860Z,30.44
2023-01-31T11:22:38.921Z,29.72
2023-01-31T11:25:08.147Z,28.01
2023-01-31T11:27:40.710Z,27.70
2023-01-31T11:30:22.293Z,30.67
2023-01-31T11:32:50.802Z,30.10
2023-01-31T11:35:29.440Z,30.59
2023-01-31T11:38:01.223Z,31.04
2023-01-31T11:40:32.394Z,33.03
2023-01-31T11:43:02.188Z,31.22
2023-01-31T11:45:33.075Z,30.04
2023-01-31T11:48:12.214Z,30.71
2023-01-31T11:50:42.313Z,28.26
2023-01-31T11:53:20.719Z,28.22
2023-01-31T11:55:51.637Z,28.72
2023-01-31T11:58:22.764Z,29.46
2023-01-31T12:00:56.576Z,29.24
2023-01-31T12:03:25.919Z,29.40
2023-01-31T12:06:02.781Z,28.87
2023-01-31T12:08:35.794Z,27.98
2023-01-31T12:11:06.987Z,28.66
2023-01-31T12:13:47.084Z,28.09
2023-01-31T12:16:18.381Z,30.18
2023-01-31T12:19:04.009Z,27.64
2023-01-31T12:21:47.694Z,27.78
2023-01-31T12:24:30.003Z,28.94
2023-01-31T12:27:05.450Z,28.65
2023-01-31T12:30:04.609Z,28.89
2023-01-31T12:32:54.793Z,28.09
2023-01-31T12:35:36.117Z,28.82
2023-01-31T12:38:23.729Z,28.54
2023-01-31T12:41:04.012Z,29.78
2023-01-31T12:43:52.559Z,29.26
2023-01-31T12:46:27.105Z,27.41
2023-01-31T12:49:09.695Z,28.77
2023-01-31T12:51:44.744Z,29.07
2023-01-31T12:54:31.926Z,29.10
2023-01-31T12:57:12.555Z,29.35
2023-01-31T12:59:51.960Z,28.74
2023-01-31T13:02:42.397Z,28.27
2023-01-31T13:05:21.734Z,28.24
2023-01-31T13:07:53.121Z,29.76
2023-01-31T13:10:31.756Z,28.66
2023-01-31T13:13:02.282Z,28.85
2023-01-31T13:15:38.432Z,28.50
2023-01-31T13:18:08.208Z,29.71
2023-01-31T13:20:41.373Z,28.86
2023-01-31T13:23:16.822Z,29.31
2023-01-31T13:25:51.161Z,27.97
2023-01-31T13:28:26.673Z,28.00
2023-01-31T13:30:58.444Z,29.97
2023-01-31T13:33:33.702Z,29.59
2023-01-31T13:36:17.041Z,30.76
2023-01-31T13:38:46.552Z,30.24
2023-01-31T13:41:22.338Z,29.74
2023-01-31T13:43:51.902Z,29.42
2023-01-31T13:46:24.726Z,29.73
2023-01-31T13:48:57.162Z,30.11
2023-01-31T13:51:30.729Z,29.78
2023-01-31T13:54:05.070Z,29.96
2023-01-31T13:56:36.264Z,30.27
2023-01-31T13:59:09.697Z,29.67
2023-01-31T14:01:46.788Z,29.68
2023-01-31T14:04:26.595Z,30.58
2023-01-31T14:07:23.966Z,30.13
2023-01-31T14:10:37.651Z,31.86
2023-01-31T14:13:26.966Z,31.57
2023-01-31T14:15:57.796Z,31.73
2023-01-31T14:18:40.530Z,31.74
2023-01-31T14:21:54.842Z,31.80
2023-01-31T14:25:04.716Z,31.46
2023-01-31T14:27:37.181Z,31.05
2023-01-31T14:30:35.864Z,31.76
2023-01-31T14:33:20.512Z,33.13
2023-01-31T14:36:26.547Z,31.74
2023-01-31T14:39:30.148Z,32.78
2023-01-31T14:42:31.584Z,32.77
2023-01-31T14:45:17.358Z,33.16
2023-01-31T14:48:00.153Z,33.01
2023-01-31T14:50:43.042Z,33.03
2023-01-31T14:53:36.786Z,33.77
2023-01-31T14:56:19.421Z,33.66
2023-01-31T14:58:48.784Z,33.77
2023-01-31T15:01:21.592Z,33.38
2023-01-31T15:03:52.670Z,33.59
2023-01-31T15:06:28.177Z,33.28
2023-01-31T15:09:29.025Z,33.47
2023-01-31T15:11:58.985Z,34.44
2023-01-31T15:14:35.140Z,34.31
2023-01-31T15:17:14.989Z,34.68
2023-01-31T15:19:56.384Z,34.89
2023-01-31T15:22:27.728Z,36.42
2023-01-31T15:24:58.806Z,38.16
2023-01-31T15:27:30.614Z,38.63
2023-01-31T15:30:06.987Z,40.22
2023-01-31T15:32:41.270Z,41.26
2023-01-31T15:35:19.082Z,44.05
2023-01-31T15:37:56.865Z,45.32
2023-01-31T15:40:28.857Z,46.69
2023-01-31T15:43:16.491Z,47.85
2023-01-31T15:45:44.873Z,48.82
2023-01-31T15:48:15.729Z,49.31
2023-01-31T15:50:50.859Z,49.73
2023-01-31T15:53:23.653Z,51.01
2023-01-31T15:55:55.025Z,51.42
2023-01-31T15:58:26.164Z,52.24
2023-01-31T16:00:56.682Z,53.01
2023-01-31T16:03:26.669Z,54.45
2023-01-31T16:05:56.804Z,54.20
2023-01-31T16:08:31.292Z,56.24
2023-01-31T16:11:00.484Z,56.57
2023-01-31T16:13:29.514Z,57.04
2023-01-31T16:15:58.338Z,58.49
2023-01-31T16:18:27.022Z,59.06
2023-01-31T16:20:57.936Z,61.23
2023-01-31T16:23:31.641Z,62.17
2023-01-31T16:26:13.126Z,62.60
2023-01-31T16:28:44.976Z,62.56
2023-01-31T16:31:15.797Z,61.60
2023-01-31T16:33:49.839Z,61.60
2023-01-31T16:36:23.454Z,63.24
2023-01-31T16:38:58.442Z,64.26
2023-01-31T16:41:47.148Z,65.12
2023-01-31T16:44:19.509Z,64.90
2023-01-31T16:46:49.600Z,62.33
2023-01-31T16:49:26.601Z,64.97
2023-01-31T16:51:58.395Z,65.31
2023-01-31T16:54:31.190Z,66.10
2023-01-31T16:57:21.660Z,66.51
2023-01-31T16:59:51.464Z,67.67
2023-01-31T17:02:24.454Z,68.37
2023-01-31T17:04:56.680Z,70.44
2023-01-31T17:07:28.246Z,69.41
2023-01-31T17:10:00.975Z,68.39
2023-01-31T17:12:31.180Z,68.58
2023-01-31T17:15:02.897Z,69.37
2023-01-31T17:17:34.587Z,71.55
2023-01-31T17:20:03.372Z,71.57
2023-01-31T17:22:32.577Z,72.54
2023-01-31T17:25:03.514Z,72.25
2023-01-31T17:27:32.368Z,72.50
2023-01-31T17:30:02.006Z,73.20
2023-01-31T17:32:32.345Z,73.64
2023-01-31T17:35:02.574Z,74.10
2023-01-31T17:37:32.112Z,73.14
2023-01-31T17:40:03.415Z,68.29
2023-01-31T17:42:33.135Z,65.52
2023-01-31T17:45:03.378Z,71.01
2023-01-31T17:47:32.022Z,72.11
2023-01-31T17:50:06.036Z,71.32
2023-01-31T17:52:35.292Z,73.31
2023-01-31T17:55:15.420Z,73.01
2023-01-31T17:57:44.970Z,74.70
2023-01-31T18:00:16.217Z,74.53
2023-01-31T18:02:45.169Z,75.26
2023-01-31T18:05:20.311Z,75.86
2023-01-31T18:07:52.749Z,74.84
2023-01-31T18:10:24.011Z,75.08
2023-01-31T18:12:53.752Z,76.82
2023-01-31T18:15:25.125Z,76.73
2023-01-31T18:17:54.785Z,77.35
2023-01-31T18:20:25.488Z,76.63
2023-01-31T18:22:55.463Z,77.32
2023-01-31T18:25:26.507Z,77.85
2023-01-31T18:27:56.182Z,78.63
2023-01-31T18:30:26.313Z,78.78
2023-01-31T18:32:55.477Z,78.77
2023-01-31T18:35:25.056Z,77.71
2023-01-31T18:37:56.994Z,77.40
2023-01-31T18:40:28.080Z,78.80
2023-01-31T18:42:58.135Z,78.24
2023-01-31T18:45:29.085Z,79.53
2023-01-31T18:48:07.699Z,78.39
2023-01-31T18:50:37.232Z,80.01
2023-01-31T18:53:08.851Z,78.41
2023-01-31T18:55:40.667Z,79.44
2023-01-31T18:58:10.274Z,80.08
2023-01-31T19:00:40.594Z,80.56
2023-01-31T19:03:10.586Z,80.76
2023-01-31T19:05:40.659Z,81.08
2023-01-31T19:08:10.728Z,82.12
2023-01-31T19:10:41.965Z,81.28
2023-01-31T19:13:11.981Z,80.91
2023-01-31T19:15:42.791Z,82.61
2023-01-31T19:18:12.974Z,84.25
2023-01-31T19:20:42.961Z,84.62
2023-01-31T19:23:11.821Z,82.82
2023-01-31T19:25:44.520Z,82.24
2023-01-31T19:28:14.110Z,80.86
2023-01-31T19:30:43.259Z,82.10
2023-01-31T19:33:15.730Z,82.97
2023-01-31T19:35:45.916Z,83.07
2023-01-31T19:38:16.041Z,84.63
2023-01-31T19:40:49.244Z,83.61
2023-01-31T19:43:20.254Z,81.81
2023-01-31T19:45:51.379Z,80.81
2023-01-31T19:48:20.681Z,81.32
2023-01-31T19:50:51.504Z,83.15
2023-01-31T19:53:24.516Z,82.60
2023-01-31T19:55:57.934Z,83.17
2023-01-31T19:58:31.915Z,83.45
2023-01-31T20:01:02.775Z,85.61
2023-01-31T20:03:36.919Z,86.46
2023-01-31T20:06:11.206Z,87.63
2023-01-31T20:08:40.994Z,87.40
2023-01-31T20:11:14.960Z,85.43
2023-01-31T20:13:44.254Z,84.58
2023-01-31T20:16:17.826Z,84.80
2023-01-31T20:18:48.074Z,85.74
2023-01-31T20:21:19.342Z,86.52
2023-01-31T20:23:49.142Z,88.00
2023-01-31T20:26:26.151Z,88.82
2023-01-31T20:28:59.716Z,89.69
2023-01-31T20:31:30.149Z,90.70
2023-01-31T20:34:00.146Z,90.15
2023-01-31T20:36:30.084Z,90.36
2023-01-31T20:38:59.464Z,91.06
2023-01-31T20:41:33.007Z,91.03
2023-01-31T20:44:03.909Z,91.55
2023-01-31T20:46:37.460Z,92.80
2023-01-31T20:49:07.560Z,93.02
2023-01-31T20:51:39.957Z,93.48
2023-01-31T20:54:09.446Z,94.03
2023-01-31T20:56:43.901Z,93.68
2023-01-31T20:59:13.675Z,96.68
2023-01-31T21:01:44.909Z,98.12
2023-01-31T21:04:14.395Z,97.84
2023-01-31T21:06:44.232Z,95.29
2023-01-31T21:09:15.139Z,95.70
2023-01-31T21:11:46.010Z,96.37
2023-01-31T21:14:14.957Z,95.60
2023-01-31T21:16:43.908Z,95.48
2023-01-31T21:19:12.734Z,95.39
2023-01-31T21:21:42.043Z,95.40
2023-01-31T21:24:11.370Z,95.51
2023-01-31T21:26:43.555Z,96.79
2023-01-31T21:29:13.227Z,95.28
2023-01-31T21:31:41.740Z,95.76
2023-01-31T21:34:10.156Z,97.00
2023-01-31T21:36:38.802Z,96.76
2023-01-31T21:39:07.383Z,96.61
2023-01-31T21:41:53.354Z,97.94
2023-01-31T21:44:23.343Z,97.61
2023-01-31T21:46:51.740Z,97.10
2023-01-31T21:49:19.875Z,97.38
2023-01-31T21:51:48.025Z,99.60
2023-01-31T21:54:16.178Z,99.06
2023-01-31T21:56:44.346Z,98.61
2023-01-31T21:59:12.680Z,98.90
2023-01-31T22:01:42.375Z,97.60
2023-01-31T22:04:10.708Z,97.70
2023-01-31T22:06:40.453Z,98.96
2023-01-31T22:09:11.805Z,98.81
2023-01-31T22:11:40.332Z,99.14
2023-01-31T22:14:11.071Z,99.20
2023-01-31T22:16:40.222Z,100.00
2023-01-31T22:19:11.811Z,100.00
2023-01-31T22:21:40.684Z,100.00
2023-01-31T22:24:11.765Z,100.00
2023-01-31T22:26:42.543Z,100.00
2023-01-31T22:29:13.130Z,100.00
2023-01-31T22:31:41.625Z,100.00
2023-01-31T22:34:14.247Z,100.00
2023-01-31T22:36:42.865Z,100.00
2023-01-31T22:39:13.334Z,100.00
2023-01-31T22:41:42.108Z,100.00
2023-01-31T22:44:10.192Z,100.00
2023-01-31T22:46:38.390Z,100.00
2023-01-31T22:49:06.509Z,98.70
2023-01-31T22:51:35.978Z,99.77
2023-01-31T22:54:04.368Z,99.95
2023-01-31T22:56:33.515Z,99.47
2023-01-31T22:59:03.365Z,99.96
2023-01-31T23:01:34.618Z,100.00
2023-01-31T23:04:04.444Z,100.00
2023-01-31T23:06:32.617Z,100.00
2023-01-31T23:09:02.106Z,99.61
2023-01-31T23:11:30.272Z,100.00
2023-01-31T23:13:58.708Z,100.00
2023-01-31T23:16:47.970Z,100.00
2023-01-31T23:19:16.587Z,100.00
2023-01-31T23:21:45.309Z,100.00
2023-01-31T23:24:15.661Z,100.00
2023-01-31T23:26:44.538Z,99.95
2023-01-31T23:29:12.897Z,100.00
2023-01-31T23:31:41.139Z,100.00
2023-01-31T23:34:09.496Z,100.00
2023-01-31T23:36:37.940Z,100.00
2023-01-31T23:39:06.549Z,100.00
2023-01-31T23:41:36.049Z,100.00
2023-01-31T23:44:04.243Z,100.00
2023-01-31T23:46:32.409Z,100.00
2023-01-31T23:49:00.572Z,100.00
2023-01-31T23:51:30.723Z,100.00
2023-01-31T23:53:58.865Z,100.00
2023-01-31T23:56:27.324Z,100.00
2023-01-31T23:58:56.982Z,100.00
